sensor_id;sensor_type;location;lat;lon;timestamp;P1;durP1;ratioP1;P2;durP2;ratioP2
562;SDS011;266;49.514;8.294;2023-09-19T00:00:35;2.20;;;1.30;;
562;SDS011;266;49.514;8.294;2023-09-19T00:03:03;1.40;;;1.10;;
562;SDS011;266;49.514;8.294;2023-09-19T00:05:33;1.47;;;1.20;;
562;SDS011;266;49.514;8.294;2023-09-19T00:08:04;1.33;;;1.23;;
562;SDS011;266;49.514;8.294;2023-09-19T00:10:33;1.17;;;1.00;;
562;SDS011;266;49.514;8.294;2023-09-19T00:13:02;1.27;;;1.17;;
562;SDS011;266;49.514;8.294;2023-09-19T00:15:36;1.37;;;1.00;;
562;SDS011;266;49.514;8.294;2023-09-19T00:18:05;1.07;;;0.97;;
562;SDS011;266;49.514;8.294;2023-09-19T00:20:35;2.30;;;1.10;;
562;SDS011;266;49.514;8.294;2023-09-19T00:23:04;1.53;;;1.43;;
562;SDS011;266;49.514;8.294;2023-09-19T00:25:35;1.30;;;1.20;;
562;SDS011;266;49.514;8.294;2023-09-19T00:28:05;1.80;;;1.10;;
562;SDS011;266;49.514;8.294;2023-09-19T00:30:34;0.93;;;0.83;;
562;SDS011;266;49.514;8.294;2023-09-19T00:33:05;1.20;;;1.10;;
562;SDS011;266;49.514;8.294;2023-09-19T00:35:34;1.50;;;1.10;;
562;SDS011;266;49.514;8.294;2023-09-19T00:38:03;1.07;;;0.97;;
562;SDS011;266;49.514;8.294;2023-09-19T00:40:32;2.20;;;1.10;;
562;SDS011;266;49.514;8.294;2023-09-19T00:43:02;1.30;;;1.20;;
562;SDS011;266;49.514;8.294;2023-09-19T00:45:32;1.20;;;1.10;;
562;SDS011;266;49.514;8.294;2023-09-19T00:48:02;1.47;;;1.37;;
562;SDS011;266;49.514;8.294;2023-09-19T00:50:38;3.37;;;1.40;;
562;SDS011;266;49.514;8.294;2023-09-19T00:53:09;1.70;;;0.90;;
562;SDS011;266;49.514;8.294;2023-09-19T00:55:42;1.47;;;1.33;;
562;SDS011;266;49.514;8.294;2023-09-19T00:58:10;1.10;;;1.00;;
562;SDS011;266;49.514;8.294;2023-09-19T01:00:39;1.67;;;1.20;;
562;SDS011;266;49.514;8.294;2023-09-19T01:03:11;2.40;;;1.43;;
562;SDS011;266;49.514;8.294;2023-09-19T01:05:40;1.40;;;1.30;;
562;SDS011;266;49.514;8.294;2023-09-19T01:08:09;2.50;;;1.40;;
562;SDS011;266;49.514;8.294;2023-09-19T01:10:38;1.63;;;1.53;;
562;SDS011;266;49.514;8.294;2023-09-19T01:13:16;2.70;;;1.47;;
562;SDS011;266;49.514;8.294;2023-09-19T01:15:57;1.50;;;1.17;;
562;SDS011;266;49.514;8.294;2023-09-19T01:18:35;2.83;;;1.93;;
562;SDS011;266;49.514;8.294;2023-09-19T01:21:08;1.30;;;1.20;;
562;SDS011;266;49.514;8.294;2023-09-19T01:23:52;1.47;;;1.37;;
562;SDS011;266;49.514;8.294;2023-09-19T01:26:43;1.73;;;1.23;;
562;SDS011;266;49.514;8.294;2023-09-19T01:29:35;1.20;;;1.10;;
562;SDS011;266;49.514;8.294;2023-09-19T01:32:08;1.40;;;1.30;;
562;SDS011;266;49.514;8.294;2023-09-19T01:34:43;2.80;;;1.50;;
562;SDS011;266;49.514;8.294;2023-09-19T01:37:15;1.47;;;1.27;;
562;SDS011;266;49.514;8.294;2023-09-19T01:39:46;2.57;;;1.30;;
562;SDS011;266;49.514;8.294;2023-09-19T01:42:18;1.43;;;1.30;;
562;SDS011;266;49.514;8.294;2023-09-19T01:44:57;4.40;;;1.57;;
562;SDS011;266;49.514;8.294;2023-09-19T01:47:34;1.63;;;1.53;;
562;SDS011;266;49.514;8.294;2023-09-19T01:50:07;1.30;;;1.00;;
562;SDS011;266;49.514;8.294;2023-09-19T01:52:45;1.30;;;1.20;;
562;SDS011;266;49.514;8.294;2023-09-19T01:55:15;2.07;;;1.43;;
562;SDS011;266;49.514;8.294;2023-09-19T01:57:48;1.30;;;1.20;;
562;SDS011;266;49.514;8.294;2023-09-19T02:00:21;2.17;;;1.47;;
562;SDS011;266;49.514;8.294;2023-09-19T02:02:51;1.83;;;1.20;;
562;SDS011;266;49.514;8.294;2023-09-19T02:05:22;11.87;;;1.87;;
562;SDS011;266;49.514;8.294;2023-09-19T02:07:51;1.33;;;1.17;;
562;SDS011;266;49.514;8.294;2023-09-19T02:10:20;1.40;;;1.30;;
562;SDS011;266;49.514;8.294;2023-09-19T02:12:49;5.23;;;2.30;;
562;SDS011;266;49.514;8.294;2023-09-19T02:15:18;4.20;;;1.30;;
562;SDS011;266;49.514;8.294;2023-09-19T02:17:46;1.40;;;1.30;;
562;SDS011;266;49.514;8.294;2023-09-19T02:20:15;2.93;;;1.50;;
562;SDS011;266;49.514;8.294;2023-09-19T02:22:46;1.67;;;1.50;;
562;SDS011;266;49.514;8.294;2023-09-19T02:25:16;1.40;;;1.30;;
562;SDS011;266;49.514;8.294;2023-09-19T02:27:46;1.40;;;1.30;;
562;SDS011;266;49.514;8.294;2023-09-19T02:30:14;1.40;;;1.30;;
562;SDS011;266;49.514;8.294;2023-09-19T02:32:46;1.40;;;1.30;;
562;SDS011;266;49.514;8.294;2023-09-19T02:35:17;1.20;;;1.10;;
562;SDS011;266;49.514;8.294;2023-09-19T02:37:47;1.67;;;1.57;;
562;SDS011;266;49.514;8.294;2023-09-19T02:40:15;2.50;;;1.60;;
562;SDS011;266;49.514;8.294;2023-09-19T02:42:46;1.37;;;1.23;;
562;SDS011;266;49.514;8.294;2023-09-19T02:45:16;2.13;;;1.30;;
562;SDS011;266;49.514;8.294;2023-09-19T02:47:47;1.50;;;1.40;;
562;SDS011;266;49.514;8.294;2023-09-19T02:50:16;1.50;;;1.40;;
562;SDS011;266;49.514;8.294;2023-09-19T02:52:46;1.30;;;1.20;;
562;SDS011;266;49.514;8.294;2023-09-19T02:55:15;1.50;;;1.40;;
562;SDS011;266;49.514;8.294;2023-09-19T02:57:46;1.90;;;1.60;;
562;SDS011;266;49.514;8.294;2023-09-19T03:00:15;2.20;;;2.10;;
562;SDS011;266;49.514;8.294;2023-09-19T03:02:47;2.07;;;1.70;;
562;SDS011;266;49.514;8.294;2023-09-19T03:05:15;1.53;;;1.43;;
562;SDS011;266;49.514;8.294;2023-09-19T03:07:46;1.80;;;1.70;;
562;SDS011;266;49.514;8.294;2023-09-19T03:10:17;2.23;;;2.03;;
562;SDS011;266;49.514;8.294;2023-09-19T03:12:45;1.90;;;1.80;;
562;SDS011;266;49.514;8.294;2023-09-19T03:15:13;2.57;;;2.10;;
562;SDS011;266;49.514;8.294;2023-09-19T03:17:43;2.40;;;2.20;;
562;SDS011;266;49.514;8.294;2023-09-19T03:20:11;2.20;;;2.00;;
562;SDS011;266;49.514;8.294;2023-09-19T03:22:42;1.97;;;1.87;;
562;SDS011;266;49.514;8.294;2023-09-19T03:25:10;3.50;;;2.40;;
562;SDS011;266;49.514;8.294;2023-09-19T03:27:39;2.63;;;2.17;;
562;SDS011;266;49.514;8.294;2023-09-19T03:30:07;3.60;;;2.53;;
562;SDS011;266;49.514;8.294;2023-09-19T03:32:35;2.60;;;2.40;;
562;SDS011;266;49.514;8.294;2023-09-19T03:35:04;3.00;;;2.47;;
562;SDS011;266;49.514;8.294;2023-09-19T03:37:35;3.30;;;2.70;;
562;SDS011;266;49.514;8.294;2023-09-19T03:40:05;2.63;;;2.40;;
562;SDS011;266;49.514;8.294;2023-09-19T03:42:34;3.07;;;2.73;;
562;SDS011;266;49.514;8.294;2023-09-19T03:45:05;2.60;;;2.40;;
562;SDS011;266;49.514;8.294;2023-09-19T03:47:35;2.73;;;2.53;;
562;SDS011;266;49.514;8.294;2023-09-19T03:50:04;2.50;;;2.30;;
562;SDS011;266;49.514;8.294;2023-09-19T03:52:33;2.50;;;2.30;;
562;SDS011;266;49.514;8.294;2023-09-19T03:55:01;3.57;;;2.70;;
562;SDS011;266;49.514;8.294;2023-09-19T03:57:32;2.87;;;2.67;;
562;SDS011;266;49.514;8.294;2023-09-19T04:00:02;2.40;;;2.20;;
562;SDS011;266;49.514;8.294;2023-09-19T04:02:32;2.07;;;1.87;;
562;SDS011;266;49.514;8.294;2023-09-19T04:05:00;2.70;;;2.40;;
562;SDS011;266;49.514;8.294;2023-09-19T04:07:28;2.40;;;2.20;;
562;SDS011;266;49.514;8.294;2023-09-19T04:09:56;2.60;;;2.40;;
562;SDS011;266;49.514;8.294;2023-09-19T04:12:24;2.97;;;2.77;;
562;SDS011;266;49.514;8.294;2023-09-19T04:14:53;3.47;;;2.20;;
562;SDS011;266;49.514;8.294;2023-09-19T04:17:21;2.90;;;2.70;;
562;SDS011;266;49.514;8.294;2023-09-19T04:19:50;4.27;;;2.43;;
562;SDS011;266;49.514;8.294;2023-09-19T04:22:18;5.50;;;2.40;;
562;SDS011;266;49.514;8.294;2023-09-19T04:24:46;5.47;;;3.00;;
562;SDS011;266;49.514;8.294;2023-09-19T04:27:14;4.63;;;2.40;;
562;SDS011;266;49.514;8.294;2023-09-19T04:29:42;3.60;;;2.87;;
562;SDS011;266;49.514;8.294;2023-09-19T04:32:11;2.60;;;2.40;;
562;SDS011;266;49.514;8.294;2023-09-19T04:34:39;3.50;;;2.37;;
562;SDS011;266;49.514;8.294;2023-09-19T04:37:07;3.07;;;2.30;;
562;SDS011;266;49.514;8.294;2023-09-19T04:39:37;3.97;;;3.57;;
562;SDS011;266;49.514;8.294;2023-09-19T04:42:05;2.27;;;2.17;;
562;SDS011;266;49.514;8.294;2023-09-19T04:44:33;2.63;;;1.73;;
562;SDS011;266;49.514;8.294;2023-09-19T04:47:02;2.10;;;1.80;;
562;SDS011;266;49.514;8.294;2023-09-19T04:49:32;2.10;;;1.80;;
562;SDS011;266;49.514;8.294;2023-09-19T04:52:01;6.87;;;2.33;;
562;SDS011;266;49.514;8.294;2023-09-19T04:54:29;3.47;;;2.60;;
562;SDS011;266;49.514;8.294;2023-09-19T04:56:57;2.87;;;1.80;;
562;SDS011;266;49.514;8.294;2023-09-19T04:59:25;2.60;;;2.00;;
562;SDS011;266;49.514;8.294;2023-09-19T05:01:54;2.13;;;1.70;;
562;SDS011;266;49.514;8.294;2023-09-19T05:04:22;3.30;;;1.90;;
562;SDS011;266;49.514;8.294;2023-09-19T05:06:52;2.10;;;2.00;;
562;SDS011;266;49.514;8.294;2023-09-19T05:09:20;2.60;;;1.97;;
562;SDS011;266;49.514;8.294;2023-09-19T05:11:48;2.13;;;1.93;;
562;SDS011;266;49.514;8.294;2023-09-19T05:14:17;1.87;;;1.73;;
562;SDS011;266;49.514;8.294;2023-09-19T05:16:47;2.23;;;2.03;;
562;SDS011;266;49.514;8.294;2023-09-19T05:19:15;4.57;;;2.57;;
562;SDS011;266;49.514;8.294;2023-09-19T05:21:43;8.20;;;1.80;;
562;SDS011;266;49.514;8.294;2023-09-19T05:24:13;1.73;;;1.63;;
562;SDS011;266;49.514;8.294;2023-09-19T05:26:43;4.20;;;2.10;;
562;SDS011;266;49.514;8.294;2023-09-19T05:29:11;2.20;;;2.00;;
562;SDS011;266;49.514;8.294;2023-09-19T05:31:40;2.00;;;1.90;;
562;SDS011;266;49.514;8.294;2023-09-19T05:34:09;2.40;;;1.93;;
562;SDS011;266;49.514;8.294;2023-09-19T05:36:37;1.60;;;1.50;;
562;SDS011;266;49.514;8.294;2023-09-19T05:39:05;4.07;;;1.90;;
562;SDS011;266;49.514;8.294;2023-09-19T05:41:37;2.03;;;1.83;;
562;SDS011;266;49.514;8.294;2023-09-19T05:44:06;1.93;;;1.83;;
562;SDS011;266;49.514;8.294;2023-09-19T05:46:34;4.43;;;2.10;;
562;SDS011;266;49.514;8.294;2023-09-19T05:49:02;4.53;;;2.80;;
562;SDS011;266;49.514;8.294;2023-09-19T05:51:30;2.47;;;2.27;;
562;SDS011;266;49.514;8.294;2023-09-19T05:53:58;2.40;;;1.40;;
562;SDS011;266;49.514;8.294;2023-09-19T05:56:26;5.70;;;1.97;;
562;SDS011;266;49.514;8.294;2023-09-19T05:58:56;1.70;;;1.60;;
562;SDS011;266;49.514;8.294;2023-09-19T06:01:26;6.47;;;1.60;;
562;SDS011;266;49.514;8.294;2023-09-19T06:03:55;1.80;;;1.70;;
562;SDS011;266;49.514;8.294;2023-09-19T06:06:23;1.63;;;1.53;;
562;SDS011;266;49.514;8.294;2023-09-19T06:08:51;2.40;;;1.60;;
562;SDS011;266;49.514;8.294;2023-09-19T06:11:19;2.40;;;1.77;;
562;SDS011;266;49.514;8.294;2023-09-19T06:13:48;2.80;;;1.63;;
562;SDS011;266;49.514;8.294;2023-09-19T06:16:18;3.23;;;1.77;;
562;SDS011;266;49.514;8.294;2023-09-19T06:18:50;2.03;;;1.40;;
562;SDS011;266;49.514;8.294;2023-09-19T06:21:19;4.20;;;1.80;;
562;SDS011;266;49.514;8.294;2023-09-19T06:23:47;3.23;;;2.10;;
562;SDS011;266;49.514;8.294;2023-09-19T06:26:15;2.70;;;1.60;;
562;SDS011;266;49.514;8.294;2023-09-19T06:28:43;2.00;;;1.80;;
562;SDS011;266;49.514;8.294;2023-09-19T06:31:11;2.10;;;1.70;;
562;SDS011;266;49.514;8.294;2023-09-19T06:33:41;2.80;;;1.73;;
562;SDS011;266;49.514;8.294;2023-09-19T06:36:09;3.03;;;1.40;;
562;SDS011;266;49.514;8.294;2023-09-19T06:38:37;1.53;;;1.37;;
562;SDS011;266;49.514;8.294;2023-09-19T06:41:07;1.70;;;1.60;;
562;SDS011;266;49.514;8.294;2023-09-19T06:43:36;2.60;;;1.87;;
562;SDS011;266;49.514;8.294;2023-09-19T06:46:04;2.37;;;1.53;;
562;SDS011;266;49.514;8.294;2023-09-19T06:48:33;1.63;;;1.53;;
562;SDS011;266;49.514;8.294;2023-09-19T06:51:03;2.60;;;2.07;;
562;SDS011;266;49.514;8.294;2023-09-19T06:53:31;3.00;;;1.57;;
562;SDS011;266;49.514;8.294;2023-09-19T06:56:01;3.10;;;1.50;;
562;SDS011;266;49.514;8.294;2023-09-19T06:58:30;1.63;;;1.53;;
562;SDS011;266;49.514;8.294;2023-09-19T07:00:58;1.80;;;1.70;;
562;SDS011;266;49.514;8.294;2023-09-19T07:03:26;1.50;;;1.40;;
562;SDS011;266;49.514;8.294;2023-09-19T07:05:55;1.97;;;1.77;;
562;SDS011;266;49.514;8.294;2023-09-19T07:08:26;1.50;;;1.40;;
562;SDS011;266;49.514;8.294;2023-09-19T07:10:55;1.80;;;1.70;;
562;SDS011;266;49.514;8.294;2023-09-19T07:13:24;4.60;;;1.80;;
562;SDS011;266;49.514;8.294;2023-09-19T07:15:52;3.37;;;2.13;;
562;SDS011;266;49.514;8.294;2023-09-19T07:18:20;2.73;;;1.83;;
562;SDS011;266;49.514;8.294;2023-09-19T07:20:48;2.00;;;1.90;;
562;SDS011;266;49.514;8.294;2023-09-19T07:23:17;1.80;;;1.70;;
562;SDS011;266;49.514;8.294;2023-09-19T07:25:47;3.00;;;2.10;;
562;SDS011;266;49.514;8.294;2023-09-19T07:28:15;1.93;;;1.83;;
562;SDS011;266;49.514;8.294;2023-09-19T07:30:44;1.90;;;1.80;;
562;SDS011;266;49.514;8.294;2023-09-19T07:33:12;2.20;;;2.00;;
562;SDS011;266;49.514;8.294;2023-09-19T07:35:44;2.03;;;1.83;;
562;SDS011;266;49.514;8.294;2023-09-19T07:38:12;3.20;;;2.20;;
562;SDS011;266;49.514;8.294;2023-09-19T07:40:40;2.10;;;1.90;;
562;SDS011;266;49.514;8.294;2023-09-19T07:43:10;2.60;;;2.10;;
562;SDS011;266;49.514;8.294;2023-09-19T07:45:38;2.97;;;2.00;;
562;SDS011;266;49.514;8.294;2023-09-19T07:48:06;2.67;;;2.47;;
562;SDS011;266;49.514;8.294;2023-09-19T07:50:40;2.20;;;2.10;;
562;SDS011;266;49.514;8.294;2023-09-19T07:53:10;5.70;;;2.60;;
562;SDS011;266;49.514;8.294;2023-09-19T07:55:39;7.83;;;3.37;;
562;SDS011;266;49.514;8.294;2023-09-19T07:58:10;3.33;;;3.00;;
562;SDS011;266;49.514;8.294;2023-09-19T08:00:39;2.43;;;2.07;;
562;SDS011;266;49.514;8.294;2023-09-19T08:03:07;2.27;;;2.07;;
562;SDS011;266;49.514;8.294;2023-09-19T08:05:43;2.30;;;2.10;;
562;SDS011;266;49.514;8.294;2023-09-19T08:08:12;2.47;;;2.27;;
562;SDS011;266;49.514;8.294;2023-09-19T08:10:41;3.07;;;2.57;;
562;SDS011;266;49.514;8.294;2023-09-19T08:13:13;3.10;;;2.00;;
562;SDS011;266;49.514;8.294;2023-09-19T08:15:43;2.87;;;2.10;;
562;SDS011;266;49.514;8.294;2023-09-19T08:18:12;2.33;;;2.20;;
562;SDS011;266;49.514;8.294;2023-09-19T08:20:41;2.47;;;2.27;;
562;SDS011;266;49.514;8.294;2023-09-19T08:23:12;3.93;;;2.70;;
562;SDS011;266;49.514;8.294;2023-09-19T08:25:40;2.93;;;2.60;;
562;SDS011;266;49.514;8.294;2023-09-19T08:28:08;2.40;;;2.20;;
562;SDS011;266;49.514;8.294;2023-09-19T08:30:40;2.30;;;2.00;;
562;SDS011;266;49.514;8.294;2023-09-19T08:33:08;2.37;;;2.17;;
562;SDS011;266;49.514;8.294;2023-09-19T08:35:37;5.23;;;2.70;;
562;SDS011;266;49.514;8.294;2023-09-19T08:38:06;3.93;;;2.20;;
562;SDS011;266;49.514;8.294;2023-09-19T08:40:36;3.33;;;2.43;;
562;SDS011;266;49.514;8.294;2023-09-19T08:43:06;2.40;;;2.20;;
562;SDS011;266;49.514;8.294;2023-09-19T08:45:34;3.33;;;2.97;;
562;SDS011;266;49.514;8.294;2023-09-19T08:48:08;2.33;;;2.13;;
562;SDS011;266;49.514;8.294;2023-09-19T08:50:47;1.77;;;1.60;;
562;SDS011;266;49.514;8.294;2023-09-19T08:53:20;1.97;;;1.83;;
562;SDS011;266;49.514;8.294;2023-09-19T08:55:55;3.27;;;2.37;;
562;SDS011;266;49.514;8.294;2023-09-19T08:58:25;2.40;;;1.97;;
562;SDS011;266;49.514;8.294;2023-09-19T09:01:00;6.17;;;2.10;;
562;SDS011;266;49.514;8.294;2023-09-19T09:03:32;2.50;;;1.73;;
562;SDS011;266;49.514;8.294;2023-09-19T09:06:01;4.13;;;1.70;;
562;SDS011;266;49.514;8.294;2023-09-19T09:08:30;1.73;;;1.63;;
562;SDS011;266;49.514;8.294;2023-09-19T09:10:59;2.50;;;1.60;;
562;SDS011;266;49.514;8.294;2023-09-19T09:13:28;4.67;;;1.83;;
562;SDS011;266;49.514;8.294;2023-09-19T09:15:57;2.97;;;2.00;;
562;SDS011;266;49.514;8.294;2023-09-19T09:18:25;2.00;;;1.73;;
562;SDS011;266;49.514;8.294;2023-09-19T09:20:55;2.60;;;1.47;;
562;SDS011;266;49.514;8.294;2023-09-19T09:23:23;2.13;;;1.93;;
562;SDS011;266;49.514;8.294;2023-09-19T09:25:52;2.03;;;1.60;;
562;SDS011;266;49.514;8.294;2023-09-19T09:28:23;3.47;;;1.80;;
562;SDS011;266;49.514;8.294;2023-09-19T09:30:54;7.20;;;2.10;;
562;SDS011;266;49.514;8.294;2023-09-19T09:33:22;4.53;;;1.57;;
562;SDS011;266;49.514;8.294;2023-09-19T09:35:51;2.23;;;1.80;;
562;SDS011;266;49.514;8.294;2023-09-19T09:38:25;2.83;;;1.87;;
562;SDS011;266;49.514;8.294;2023-09-19T09:40:55;4.50;;;1.70;;
562;SDS011;266;49.514;8.294;2023-09-19T09:43:29;2.03;;;1.70;;
562;SDS011;266;49.514;8.294;2023-09-19T09:46:09;1.57;;;1.37;;
562;SDS011;266;49.514;8.294;2023-09-19T09:48:57;3.40;;;1.30;;
562;SDS011;266;49.514;8.294;2023-09-19T09:51:43;1.90;;;1.60;;
562;SDS011;266;49.514;8.294;2023-09-19T09:54:16;2.57;;;1.20;;
562;SDS011;266;49.514;8.294;2023-09-19T09:56:52;2.43;;;1.70;;
562;SDS011;266;49.514;8.294;2023-09-19T10:02:19;2.30;;;1.77;;
562;SDS011;266;49.514;8.294;2023-09-19T10:04:56;2.23;;;1.50;;
562;SDS011;266;49.514;8.294;2023-09-19T10:07:41;3.83;;;1.73;;
562;SDS011;266;49.514;8.294;2023-09-19T10:10:29;1.73;;;1.50;;
562;SDS011;266;49.514;8.294;2023-09-19T10:13:05;2.70;;;2.00;;
562;SDS011;266;49.514;8.294;2023-09-19T10:15:34;2.57;;;2.00;;
562;SDS011;266;49.514;8.294;2023-09-19T10:18:04;2.80;;;2.07;;
562;SDS011;266;49.514;8.294;2023-09-19T10:20:35;3.63;;;1.53;;
562;SDS011;266;49.514;8.294;2023-09-19T10:23:06;1.60;;;1.50;;
562;SDS011;266;49.514;8.294;2023-09-19T10:25:41;2.70;;;1.70;;
562;SDS011;266;49.514;8.294;2023-09-19T10:28:12;4.63;;;2.53;;
562;SDS011;266;49.514;8.294;2023-09-19T10:30:41;5.63;;;3.50;;
562;SDS011;266;49.514;8.294;2023-09-19T10:33:12;2.90;;;1.80;;
562;SDS011;266;49.514;8.294;2023-09-19T10:35:42;1.67;;;1.57;;
562;SDS011;266;49.514;8.294;2023-09-19T10:38:12;1.63;;;1.53;;
562;SDS011;266;49.514;8.294;2023-09-19T10:40:48;2.37;;;1.90;;
562;SDS011;266;49.514;8.294;2023-09-19T10:43:18;2.20;;;1.80;;
562;SDS011;266;49.514;8.294;2023-09-19T10:45:48;3.13;;;1.80;;
562;SDS011;266;49.514;8.294;2023-09-19T10:48:19;2.40;;;2.10;;
562;SDS011;266;49.514;8.294;2023-09-19T10:50:53;1.70;;;1.60;;
562;SDS011;266;49.514;8.294;2023-09-19T10:53:39;1.73;;;1.53;;
562;SDS011;266;49.514;8.294;2023-09-19T10:56:17;4.90;;;1.53;;
562;SDS011;266;49.514;8.294;2023-09-19T10:58:51;5.50;;;1.80;;
562;SDS011;266;49.514;8.294;2023-09-19T11:01:19;2.17;;;1.30;;
562;SDS011;266;49.514;8.294;2023-09-19T11:03:47;3.20;;;1.50;;
562;SDS011;266;49.514;8.294;2023-09-19T11:06:19;2.47;;;1.37;;
562;SDS011;266;49.514;8.294;2023-09-19T11:08:58;1.50;;;1.40;;
562;SDS011;266;49.514;8.294;2023-09-19T11:11:44;2.93;;;1.40;;
562;SDS011;266;49.514;8.294;2023-09-19T11:20:19;1.40;;;1.30;;
562;SDS011;266;49.514;8.294;2023-09-19T11:25:53;1.23;;;1.10;;
562;SDS011;266;49.514;8.294;2023-09-19T11:28:29;2.03;;;1.20;;
562;SDS011;266;49.514;8.294;2023-09-19T11:34:42;2.20;;;1.00;;
562;SDS011;266;49.514;8.294;2023-09-19T11:40:29;1.13;;;1.03;;
562;SDS011;266;49.514;8.294;2023-09-19T11:42:57;1.70;;;1.30;;
562;SDS011;266;49.514;8.294;2023-09-19T11:48:35;2.23;;;1.10;;
562;SDS011;266;49.514;8.294;2023-09-19T11:51:11;1.67;;;1.13;;
562;SDS011;266;49.514;8.294;2023-09-19T11:53:48;2.50;;;1.33;;
562;SDS011;266;49.514;8.294;2023-09-19T11:56:18;2.93;;;1.13;;
562;SDS011;266;49.514;8.294;2023-09-19T11:58:49;1.53;;;1.00;;
562;SDS011;266;49.514;8.294;2023-09-19T12:01:23;2.70;;;1.20;;
562;SDS011;266;49.514;8.294;2023-09-19T12:03:55;3.50;;;1.10;;
562;SDS011;266;49.514;8.294;2023-09-19T12:06:26;1.97;;;1.13;;
562;SDS011;266;49.514;8.294;2023-09-19T12:08:56;2.70;;;1.07;;
562;SDS011;266;49.514;8.294;2023-09-19T12:11:27;1.23;;;1.10;;
562;SDS011;266;49.514;8.294;2023-09-19T12:13:59;1.20;;;1.10;;
562;SDS011;266;49.514;8.294;2023-09-19T12:16:30;1.37;;;1.00;;
562;SDS011;266;49.514;8.294;2023-09-19T12:21:54;1.03;;;0.90;;
562;SDS011;266;49.514;8.294;2023-09-19T12:24:31;3.03;;;1.10;;
562;SDS011;266;49.514;8.294;2023-09-19T12:27:02;1.50;;;1.13;;
562;SDS011;266;49.514;8.294;2023-09-19T12:29:42;1.70;;;1.07;;
562;SDS011;266;49.514;8.294;2023-09-19T12:32:12;3.13;;;1.53;;
562;SDS011;266;49.514;8.294;2023-09-19T12:34:49;2.47;;;1.60;;
562;SDS011;266;49.514;8.294;2023-09-19T12:37:19;1.33;;;1.10;;
562;SDS011;266;49.514;8.294;2023-09-19T12:39:48;1.60;;;1.20;;
562;SDS011;266;49.514;8.294;2023-09-19T12:42:21;1.67;;;1.10;;
562;SDS011;266;49.514;8.294;2023-09-19T12:44:51;1.10;;;1.00;;
562;SDS011;266;49.514;8.294;2023-09-19T12:47:23;1.90;;;1.10;;
562;SDS011;266;49.514;8.294;2023-09-19T12:50:13;1.10;;;1.00;;
562;SDS011;266;49.514;8.294;2023-09-19T12:52:45;1.87;;;1.13;;
562;SDS011;266;49.514;8.294;2023-09-19T12:55:19;1.33;;;1.07;;
562;SDS011;266;49.514;8.294;2023-09-19T12:57:57;1.10;;;0.93;;
562;SDS011;266;49.514;8.294;2023-09-19T13:00:31;1.37;;;1.00;;
562;SDS011;266;49.514;8.294;2023-09-19T13:03:13;1.23;;;1.13;;
562;SDS011;266;49.514;8.294;2023-09-19T13:05:51;2.03;;;1.10;;
562;SDS011;266;49.514;8.294;2023-09-19T13:08:23;1.83;;;1.10;;
562;SDS011;266;49.514;8.294;2023-09-19T13:11:05;1.10;;;1.00;;
562;SDS011;266;49.514;8.294;2023-09-19T13:13:37;3.90;;;1.70;;
562;SDS011;266;49.514;8.294;2023-09-19T13:16:15;1.57;;;1.47;;
562;SDS011;266;49.514;8.294;2023-09-19T13:18:50;1.10;;;0.90;;
562;SDS011;266;49.514;8.294;2023-09-19T13:21:29;2.10;;;1.20;;
562;SDS011;266;49.514;8.294;2023-09-19T13:27:01;4.40;;;1.33;;
562;SDS011;266;49.514;8.294;2023-09-19T13:29:30;4.50;;;0.90;;
562;SDS011;266;49.514;8.294;2023-09-19T13:32:02;3.80;;;1.20;;
562;SDS011;266;49.514;8.294;2023-09-19T13:34:32;2.90;;;1.00;;
562;SDS011;266;49.514;8.294;2023-09-19T13:37:00;1.47;;;1.20;;
562;SDS011;266;49.514;8.294;2023-09-19T13:39:29;2.30;;;1.23;;
562;SDS011;266;49.514;8.294;2023-09-19T13:41:57;0.87;;;0.83;;
562;SDS011;266;49.514;8.294;2023-09-19T13:44:26;1.33;;;1.00;;
562;SDS011;266;49.514;8.294;2023-09-19T13:46:56;2.80;;;1.10;;
562;SDS011;266;49.514;8.294;2023-09-19T13:49:24;2.30;;;1.20;;
562;SDS011;266;49.514;8.294;2023-09-19T13:51:54;1.20;;;1.10;;
562;SDS011;266;49.514;8.294;2023-09-19T13:54:22;1.10;;;1.00;;
562;SDS011;266;49.514;8.294;2023-09-19T13:56:50;1.67;;;1.57;;
562;SDS011;266;49.514;8.294;2023-09-19T13:59:18;1.77;;;1.07;;
562;SDS011;266;49.514;8.294;2023-09-19T14:01:47;3.00;;;1.10;;
562;SDS011;266;49.514;8.294;2023-09-19T14:04:15;1.17;;;1.07;;
562;SDS011;266;49.514;8.294;2023-09-19T14:06:44;1.20;;;1.10;;
562;SDS011;266;49.514;8.294;2023-09-19T14:09:14;1.20;;;0.90;;
562;SDS011;266;49.514;8.294;2023-09-19T14:11:43;1.53;;;1.27;;
562;SDS011;266;49.514;8.294;2023-09-19T14:14:13;1.43;;;1.10;;
562;SDS011;266;49.514;8.294;2023-09-19T14:16:41;1.10;;;1.00;;
562;SDS011;266;49.514;8.294;2023-09-19T14:19:09;1.60;;;1.23;;
562;SDS011;266;49.514;8.294;2023-09-19T14:21:40;1.40;;;1.00;;
562;SDS011;266;49.514;8.294;2023-09-19T14:24:09;2.50;;;1.53;;
562;SDS011;266;49.514;8.294;2023-09-19T14:26:42;2.33;;;1.30;;
562;SDS011;266;49.514;8.294;2023-09-19T14:29:10;1.30;;;1.17;;
562;SDS011;266;49.514;8.294;2023-09-19T14:31:39;1.73;;;1.00;;
562;SDS011;266;49.514;8.294;2023-09-19T14:34:08;1.23;;;1.13;;
562;SDS011;266;49.514;8.294;2023-09-19T14:36:36;2.17;;;1.03;;
562;SDS011;266;49.514;8.294;2023-09-19T14:39:05;1.13;;;1.00;;
562;SDS011;266;49.514;8.294;2023-09-19T14:41:34;1.70;;;1.30;;
562;SDS011;266;49.514;8.294;2023-09-19T14:44:04;2.90;;;1.67;;
562;SDS011;266;49.514;8.294;2023-09-19T14:46:32;1.40;;;1.23;;
562;SDS011;266;49.514;8.294;2023-09-19T14:49:03;1.67;;;0.90;;
562;SDS011;266;49.514;8.294;2023-09-19T14:51:32;1.30;;;1.20;;
562;SDS011;266;49.514;8.294;2023-09-19T14:54:02;2.17;;;1.00;;
562;SDS011;266;49.514;8.294;2023-09-19T14:56:30;1.50;;;1.23;;
562;SDS011;266;49.514;8.294;2023-09-19T14:58:58;3.37;;;1.27;;
562;SDS011;266;49.514;8.294;2023-09-19T15:01:28;2.30;;;1.13;;
562;SDS011;266;49.514;8.294;2023-09-19T15:03:56;1.93;;;1.07;;
562;SDS011;266;49.514;8.294;2023-09-19T15:06:24;1.40;;;1.30;;
562;SDS011;266;49.514;8.294;2023-09-19T15:08:52;0.70;;;0.70;;
562;SDS011;266;49.514;8.294;2023-09-19T15:11:21;1.40;;;1.07;;
562;SDS011;266;49.514;8.294;2023-09-19T15:13:51;1.20;;;0.90;;
562;SDS011;266;49.514;8.294;2023-09-19T15:16:19;1.60;;;1.10;;
562;SDS011;266;49.514;8.294;2023-09-19T15:18:50;2.10;;;1.10;;
562;SDS011;266;49.514;8.294;2023-09-19T15:21:18;1.30;;;0.90;;
562;SDS011;266;49.514;8.294;2023-09-19T15:23:47;1.20;;;1.10;;
562;SDS011;266;49.514;8.294;2023-09-19T15:26:15;1.47;;;1.37;;
562;SDS011;266;49.514;8.294;2023-09-19T15:28:47;2.50;;;1.00;;
562;SDS011;266;49.514;8.294;2023-09-19T15:31:16;1.10;;;1.00;;
562;SDS011;266;49.514;8.294;2023-09-19T15:33:44;1.50;;;1.40;;
562;SDS011;266;49.514;8.294;2023-09-19T15:36:14;1.90;;;1.60;;
562;SDS011;266;49.514;8.294;2023-09-19T15:38:55;1.50;;;1.20;;
562;SDS011;266;49.514;8.294;2023-09-19T15:41:24;1.40;;;1.30;;
562;SDS011;266;49.514;8.294;2023-09-19T15:43:53;1.23;;;1.13;;
562;SDS011;266;49.514;8.294;2023-09-19T15:46:21;1.73;;;1.30;;
562;SDS011;266;49.514;8.294;2023-09-19T15:48:50;1.50;;;1.17;;
562;SDS011;266;49.514;8.294;2023-09-19T15:51:20;1.13;;;1.03;;
562;SDS011;266;49.514;8.294;2023-09-19T15:53:48;1.13;;;1.03;;
562;SDS011;266;49.514;8.294;2023-09-19T15:56:18;1.10;;;1.00;;
562;SDS011;266;49.514;8.294;2023-09-19T15:58:49;1.57;;;1.30;;
562;SDS011;266;49.514;8.294;2023-09-19T16:01:20;1.17;;;1.07;;
562;SDS011;266;49.514;8.294;2023-09-19T16:03:49;1.30;;;1.20;;
562;SDS011;266;49.514;8.294;2023-09-19T16:06:21;2.23;;;1.10;;
562;SDS011;266;49.514;8.294;2023-09-19T16:08:51;1.97;;;1.33;;
562;SDS011;266;49.514;8.294;2023-09-19T16:11:21;2.40;;;1.10;;
562;SDS011;266;49.514;8.294;2023-09-19T16:13:50;1.93;;;1.10;;
562;SDS011;266;49.514;8.294;2023-09-19T16:16:21;2.07;;;1.70;;
562;SDS011;266;49.514;8.294;2023-09-19T16:18:53;1.27;;;1.17;;
562;SDS011;266;49.514;8.294;2023-09-19T16:21:25;1.40;;;1.17;;
562;SDS011;266;49.514;8.294;2023-09-19T16:23:54;1.73;;;1.20;;
562;SDS011;266;49.514;8.294;2023-09-19T16:26:24;3.30;;;1.13;;
562;SDS011;266;49.514;8.294;2023-09-19T16:28:55;1.20;;;1.10;;
562;SDS011;266;49.514;8.294;2023-09-19T16:31:27;2.13;;;1.23;;
562;SDS011;266;49.514;8.294;2023-09-19T16:33:57;1.23;;;1.10;;